sensor_id;sensor_type;location;lat;lon;timestamp;pressure;altitude;pressure_sealevel;temperature;humidity
78170;BME280;67412;49.892;14.490;2023-05-21T00:00:05;97386.41;;;14.57;76.52
78170;BME280;67412;49.892;14.490;2023-05-21T00:02:35;97387.38;;;14.52;76.50
78170;BME280;67412;49.892;14.490;2023-05-21T00:05:00;97396.28;;;14.42;76.78
78170;BME280;67412;49.892;14.490;2023-05-21T00:07:25;97390.41;;;14.37;77.20
78170;BME280;67412;49.892;14.490;2023-05-21T00:09:51;97384.56;;;14.29;77.39
78170;BME280;67412;49.892;14.490;2023-05-21T00:12:17;97381.06;;;14.32;77.41
78170;BME280;67412;49.892;14.490;2023-05-21T00:14:42;97382.91;;;14.27;77.71
78170;BME280;67412;49.892;14.490;2023-05-21T00:17:07;97378.00;;;14.18;78.21
78170;BME280;67412;49.892;14.490;2023-05-21T00:19:33;97376.53;;;14.09;78.68
78170;BME280;67412;49.892;14.490;2023-05-21T00:21:58;97373.19;;;14.06;78.95
78170;BME280;67412;49.892;14.490;2023-05-21T00:24:27;97369.97;;;13.96;79.14
78170;BME280;67412;49.892;14.490;2023-05-21T00:26:52;97372.41;;;14.02;79.11
78170;BME280;67412;49.892;14.490;2023-05-21T00:29:17;97384.72;;;13.91;79.38
78170;BME280;67412;49.892;14.490;2023-05-21T00:31:43;97375.13;;;13.96;79.22
78170;BME280;67412;49.892;14.490;2023-05-21T00:34:08;97375.31;;;13.90;79.79
78170;BME280;67412;49.892;14.490;2023-05-21T00:36:33;97371.22;;;13.81;79.88
78170;BME280;67412;49.892;14.490;2023-05-21T00:38:59;97373.03;;;13.79;80.00
78170;BME280;67412;49.892;14.490;2023-05-21T00:41:24;97371.47;;;13.72;79.97
78170;BME280;67412;49.892;14.490;2023-05-21T00:43:50;97367.34;;;13.65;80.21
78170;BME280;67412;49.892;14.490;2023-05-21T00:46:18;97368.31;;;13.61;80.59
78170;BME280;67412;49.892;14.490;2023-05-21T00:48:45;97373.53;;;13.60;80.17
78170;BME280;67412;49.892;14.490;2023-05-21T00:51:15;97371.81;;;13.59;80.13
78170;BME280;67412;49.892;14.490;2023-05-21T00:53:43;97373.75;;;13.50;80.91
78170;BME280;67412;49.892;14.490;2023-05-21T00:56:09;97367.88;;;13.44;81.56
78170;BME280;67412;49.892;14.490;2023-05-21T00:58:34;97362.53;;;13.51;81.66
78170;BME280;67412;49.892;14.490;2023-05-21T01:01:00;97362.31;;;13.61;81.39
78170;BME280;67412;49.892;14.490;2023-05-21T01:03:29;97358.91;;;13.59;81.66
78170;BME280;67412;49.892;14.490;2023-05-21T01:05:54;97358.16;;;13.55;82.09
78170;BME280;67412;49.892;14.490;2023-05-21T01:08:24;97358.03;;;13.60;82.47
78170;BME280;67412;49.892;14.490;2023-05-21T01:10:51;97351.00;;;13.65;82.59
78170;BME280;67412;49.892;14.490;2023-05-21T01:13:16;97357.09;;;13.62;82.47
78170;BME280;67412;49.892;14.490;2023-05-21T01:15:43;97354.63;;;13.57;82.90
78170;BME280;67412;49.892;14.490;2023-05-21T01:18:09;97354.63;;;13.57;82.97
78170;BME280;67412;49.892;14.490;2023-05-21T01:20:34;97349.63;;;13.51;82.80
78170;BME280;67412;49.892;14.490;2023-05-21T01:23:01;97347.13;;;13.48;83.25
78170;BME280;67412;49.892;14.490;2023-05-21T01:25:27;97338.56;;;13.46;83.32
78170;BME280;67412;49.892;14.490;2023-05-21T01:27:52;97341.41;;;13.37;83.67
78170;BME280;67412;49.892;14.490;2023-05-21T01:30:19;97340.53;;;13.38;83.81
78170;BME280;67412;49.892;14.490;2023-05-21T01:33:02;97336.13;;;13.42;83.95
78170;BME280;67412;49.892;14.490;2023-05-21T01:41:17;97336.31;;;13.34;84.05
78170;BME280;67412;49.892;14.490;2023-05-21T01:43:44;97329.56;;;13.63;83.93
78170;BME280;67412;49.892;14.490;2023-05-21T01:46:13;97324.97;;;13.72;83.47
78170;BME280;67412;49.892;14.490;2023-05-21T01:48:40;97320.66;;;13.74;83.49
78170;BME280;67412;49.892;14.490;2023-05-21T01:51:07;97333.53;;;13.76;83.59
78170;BME280;67412;49.892;14.490;2023-05-21T01:53:32;97329.53;;;13.64;83.45
78170;BME280;67412;49.892;14.490;2023-05-21T01:55:58;97336.91;;;13.45;83.86
78170;BME280;67412;49.892;14.490;2023-05-21T01:58:24;97332.97;;;13.31;84.44
78170;BME280;67412;49.892;14.490;2023-05-21T02:00:49;97332.22;;;13.26;84.36
78170;BME280;67412;49.892;14.490;2023-05-21T02:03:19;97331.75;;;13.10;84.45
78170;BME280;67412;49.892;14.490;2023-05-21T02:05:44;97336.25;;;13.00;84.77
78170;BME280;67412;49.892;14.490;2023-05-21T02:08:10;97336.44;;;12.91;84.81
78170;BME280;67412;49.892;14.490;2023-05-21T02:10:37;97339.97;;;12.87;84.79
78170;BME280;67412;49.892;14.490;2023-05-21T02:13:02;97340.06;;;12.84;86.39
78170;BME280;67412;49.892;14.490;2023-05-21T02:15:27;97335.50;;;12.95;85.75
78170;BME280;67412;49.892;14.490;2023-05-21T02:17:53;97337.91;;;13.03;84.95
78170;BME280;67412;49.892;14.490;2023-05-21T02:20:19;97330.63;;;12.83;85.08
78170;BME280;67412;49.892;14.490;2023-05-21T02:22:47;97335.16;;;12.74;85.43
78170;BME280;67412;49.892;14.490;2023-05-21T02:25:15;97326.72;;;12.66;85.90
78170;BME280;67412;49.892;14.490;2023-05-21T02:27:41;97340.72;;;12.55;85.96
78170;BME280;67412;49.892;14.490;2023-05-21T02:30:08;97333.94;;;12.50;86.52
78170;BME280;67412;49.892;14.490;2023-05-21T02:32:35;97344.28;;;12.48;85.38
78170;BME280;67412;49.892;14.490;2023-05-21T02:35:01;97338.47;;;12.40;86.63
78170;BME280;67412;49.892;14.490;2023-05-21T02:37:27;97335.22;;;12.31;84.68
78170;BME280;67412;49.892;14.490;2023-05-21T02:39:53;97338.88;;;12.21;86.01
78170;BME280;67412;49.892;14.490;2023-05-21T02:42:20;97332.25;;;12.07;85.69
78170;BME280;67412;49.892;14.490;2023-05-21T02:44:45;97339.31;;;11.98;86.29
78170;BME280;67412;49.892;14.490;2023-05-21T02:47:11;97339.44;;;11.92;84.38
78170;BME280;67412;49.892;14.490;2023-05-21T02:49:36;97340.59;;;11.76;85.21
78170;BME280;67412;49.892;14.490;2023-05-21T02:52:02;97330.41;;;11.68;87.17
78170;BME280;67412;49.892;14.490;2023-05-21T02:54:27;97327.81;;;11.71;86.53
78170;BME280;67412;49.892;14.490;2023-05-21T02:56:53;97337.31;;;11.66;86.70
78170;BME280;67412;49.892;14.490;2023-05-21T02:59:18;97332.28;;;11.58;88.48
78170;BME280;67412;49.892;14.490;2023-05-21T03:01:43;97326.19;;;11.64;89.90
78170;BME280;67412;49.892;14.490;2023-05-21T03:04:09;97322.69;;;11.68;89.04
78170;BME280;67412;49.892;14.490;2023-05-21T03:06:34;97314.94;;;11.73;88.66
78170;BME280;67412;49.892;14.490;2023-05-21T03:09:01;97323.50;;;11.73;88.52
78170;BME280;67412;49.892;14.490;2023-05-21T03:11:27;97320.94;;;11.73;88.27
78170;BME280;67412;49.892;14.490;2023-05-21T03:13:52;97323.56;;;11.67;88.70
78170;BME280;67412;49.892;14.490;2023-05-21T03:16:17;97320.00;;;11.76;89.39
78170;BME280;67412;49.892;14.490;2023-05-21T03:18:42;97321.66;;;11.80;89.35
78170;BME280;67412;49.892;14.490;2023-05-21T03:21:09;97316.44;;;11.84;89.47
78170;BME280;67412;49.892;14.490;2023-05-21T03:23:37;97318.00;;;11.91;89.78
78170;BME280;67412;49.892;14.490;2023-05-21T03:26:02;97323.75;;;12.04;89.58
78170;BME280;67412;49.892;14.490;2023-05-21T03:28:28;97317.72;;;12.05;89.94
78170;BME280;67412;49.892;14.490;2023-05-21T03:30:54;97319.19;;;12.17;90.46
78170;BME280;67412;49.892;14.490;2023-05-21T03:33:20;97323.84;;;12.41;89.46
78170;BME280;67412;49.892;14.490;2023-05-21T03:35:46;97322.38;;;12.29;89.35
78170;BME280;67412;49.892;14.490;2023-05-21T03:38:11;97324.81;;;12.35;89.57
78170;BME280;67412;49.892;14.490;2023-05-21T03:40:37;97326.59;;;12.33;89.85
78170;BME280;67412;49.892;14.490;2023-05-21T03:43:02;97323.13;;;12.34;88.91
78170;BME280;67412;49.892;14.490;2023-05-21T03:45:27;97318.78;;;12.36;88.89
78170;BME280;67412;49.892;14.490;2023-05-21T03:47:53;97318.59;;;12.45;89.38
78170;BME280;67412;49.892;14.490;2023-05-21T03:50:18;97316.84;;;12.47;89.33
78170;BME280;67412;49.892;14.490;2023-05-21T03:52:43;97314.03;;;12.56;89.66
78170;BME280;67412;49.892;14.490;2023-05-21T03:55:09;97321.75;;;12.58;89.63
78170;BME280;67412;49.892;14.490;2023-05-21T03:57:34;97323.22;;;12.70;88.88
78170;BME280;67412;49.892;14.490;2023-05-21T03:59:59;97326.47;;;12.78;88.41
78170;BME280;67412;49.892;14.490;2023-05-21T04:02:25;97321.44;;;12.72;88.46
78170;BME280;67412;49.892;14.490;2023-05-21T04:04:51;97318.84;;;12.73;88.20
78170;BME280;67412;49.892;14.490;2023-05-21T04:07:18;97323.63;;;12.88;87.58
78170;BME280;67412;49.892;14.490;2023-05-21T04:09:44;97319.09;;;12.98;87.54
78170;BME280;67412;49.892;14.490;2023-05-21T04:12:10;97323.34;;;13.00;87.21
78170;BME280;67412;49.892;14.490;2023-05-21T04:14:36;97319.69;;;13.11;86.92
78170;BME280;67412;49.892;14.490;2023-05-21T04:17:04;97324.66;;;13.18;86.57
78170;BME280;67412;49.892;14.490;2023-05-21T04:19:30;97320.94;;;13.30;86.22
78170;BME280;67412;49.892;14.490;2023-05-21T04:21:55;97324.09;;;13.41;85.98
78170;BME280;67412;49.892;14.490;2023-05-21T04:24:22;97326.31;;;13.54;86.32
78170;BME280;67412;49.892;14.490;2023-05-21T04:26:47;97338.81;;;13.71;86.55
78170;BME280;67412;49.892;14.490;2023-05-21T04:29:14;97327.16;;;13.87;86.46
78170;BME280;67412;49.892;14.490;2023-05-21T04:31:42;97331.00;;;14.05;86.14
78170;BME280;67412;49.892;14.490;2023-05-21T04:34:07;97331.91;;;14.33;85.19
78170;BME280;67412;49.892;14.490;2023-05-21T04:36:33;97335.13;;;14.71;83.71
78170;BME280;67412;49.892;14.490;2023-05-21T04:38:58;97332.56;;;14.97;84.15
78170;BME280;67412;49.892;14.490;2023-05-21T04:41:24;97330.31;;;15.14;82.40
78170;BME280;67412;49.892;14.490;2023-05-21T04:43:49;97328.28;;;15.24;82.76
78170;BME280;67412;49.892;14.490;2023-05-21T04:46:19;97337.16;;;15.41;80.91
78170;BME280;67412;49.892;14.490;2023-05-21T04:48:52;97333.44;;;15.52;81.60
78170;BME280;67412;49.892;14.490;2023-05-21T04:51:19;97331.22;;;15.66;79.85
78170;BME280;67412;49.892;14.490;2023-05-21T04:53:44;97330.69;;;15.81;80.12
78170;BME280;67412;49.892;14.490;2023-05-21T04:56:10;97331.03;;;15.95;79.33
78170;BME280;67412;49.892;14.490;2023-05-21T04:58:35;97326.75;;;16.19;78.18
78170;BME280;67412;49.892;14.490;2023-05-21T05:01:01;97332.38;;;16.30;77.55
78170;BME280;67412;49.892;14.490;2023-05-21T05:03:28;97332.09;;;16.37;77.04
78170;BME280;67412;49.892;14.490;2023-05-21T05:05:54;97331.69;;;16.48;76.54
78170;BME280;67412;49.892;14.490;2023-05-21T05:08:20;97321.63;;;16.64;75.94
78170;BME280;67412;49.892;14.490;2023-05-21T05:10:45;97322.84;;;16.77;75.39
78170;BME280;67412;49.892;14.490;2023-05-21T05:13:10;97326.84;;;16.85;75.29
78170;BME280;67412;49.892;14.490;2023-05-21T05:15:36;97324.53;;;17.00;75.62
78170;BME280;67412;49.892;14.490;2023-05-21T05:18:01;97320.88;;;17.05;75.37
78170;BME280;67412;49.892;14.490;2023-05-21T05:20:27;97318.88;;;17.12;74.35
78170;BME280;67412;49.892;14.490;2023-05-21T05:22:52;97321.75;;;17.26;74.39
78170;BME280;67412;49.892;14.490;2023-05-21T05:25:17;97326.38;;;17.39;74.07
78170;BME280;67412;49.892;14.490;2023-05-21T05:27:43;97316.41;;;17.51;73.27
78170;BME280;67412;49.892;14.490;2023-05-21T05:30:09;97316.59;;;17.66;72.48
78170;BME280;67412;49.892;14.490;2023-05-21T05:32:34;97320.59;;;17.75;72.67
78170;BME280;67412;49.892;14.490;2023-05-21T05:35:01;97326.25;;;17.84;72.39
78170;BME280;67412;49.892;14.490;2023-05-21T05:37:27;97314.34;;;17.99;70.78
78170;BME280;67412;49.892;14.490;2023-05-21T05:39:52;97320.81;;;18.09;70.79
78170;BME280;67412;49.892;14.490;2023-05-21T05:42:17;97322.63;;;18.07;70.30
78170;BME280;67412;49.892;14.490;2023-05-21T05:44:43;97311.41;;;18.07;69.96
78170;BME280;67412;49.892;14.490;2023-05-21T05:47:08;97315.34;;;18.15;69.91
78170;BME280;67412;49.892;14.490;2023-05-21T05:49:35;97314.03;;;18.25;69.39
78170;BME280;67412;49.892;14.490;2023-05-21T05:52:01;97317.53;;;18.24;69.86
78170;BME280;67412;49.892;14.490;2023-05-21T05:54:26;97319.59;;;18.37;69.49
78170;BME280;67412;49.892;14.490;2023-05-21T05:56:51;97315.94;;;18.41;69.90
78170;BME280;67412;49.892;14.490;2023-05-21T05:59:17;97315.47;;;18.51;69.73
78170;BME280;67412;49.892;14.490;2023-05-21T06:01:42;97320.19;;;18.62;68.90
78170;BME280;67412;49.892;14.490;2023-05-21T06:04:07;97317.28;;;18.68;69.21
78170;BME280;67412;49.892;14.490;2023-05-21T06:06:33;97321.78;;;18.83;68.12
78170;BME280;67412;49.892;14.490;2023-05-21T06:08:59;97321.56;;;18.88;68.75
78170;BME280;67412;49.892;14.490;2023-05-21T06:11:25;97313.63;;;18.91;67.72
78170;BME280;67412;49.892;14.490;2023-05-21T06:13:50;97325.66;;;18.93;67.64
78170;BME280;67412;49.892;14.490;2023-05-21T06:16:15;97319.69;;;19.08;67.35
78170;BME280;67412;49.892;14.490;2023-05-21T06:18:41;97314.38;;;19.28;66.60
78170;BME280;67412;49.892;14.490;2023-05-21T06:21:06;97312.41;;;19.34;66.48
78170;BME280;67412;49.892;14.490;2023-05-21T06:23:32;97310.16;;;19.45;66.78
78170;BME280;67412;49.892;14.490;2023-05-21T06:25:59;97303.38;;;19.58;64.91
78170;BME280;67412;49.892;14.490;2023-05-21T06:28:24;97304.47;;;19.71;65.94
78170;BME280;67412;49.892;14.490;2023-05-21T06:30:50;97311.13;;;19.76;64.59
78170;BME280;67412;49.892;14.490;2023-05-21T06:33:15;97321.00;;;19.87;63.61
78170;BME280;67412;49.892;14.490;2023-05-21T06:35:41;97316.16;;;19.97;65.20
78170;BME280;67412;49.892;14.490;2023-05-21T06:38:06;97314.47;;;19.96;62.93
78170;BME280;67412;49.892;14.490;2023-05-21T06:40:31;97312.38;;;20.02;63.06
78170;BME280;67412;49.892;14.490;2023-05-21T06:42:57;97310.69;;;20.18;63.75
78170;BME280;67412;49.892;14.490;2023-05-21T06:45:23;97308.31;;;20.14;63.74
78170;BME280;67412;49.892;14.490;2023-05-21T06:47:49;97308.22;;;20.15;63.21
78170;BME280;67412;49.892;14.490;2023-05-21T06:50:14;97310.50;;;20.39;62.88
78170;BME280;67412;49.892;14.490;2023-05-21T06:52:39;97312.56;;;20.32;61.39
78170;BME280;67412;49.892;14.490;2023-05-21T06:55:05;97312.16;;;20.40;60.55
78170;BME280;67412;49.892;14.490;2023-05-21T06:57:31;97311.88;;;20.46;61.30
78170;BME280;67412;49.892;14.490;2023-05-21T06:59:56;97313.22;;;20.53;60.90
78170;BME280;67412;49.892;14.490;2023-05-21T07:02:21;97315.03;;;20.51;61.22
78170;BME280;67412;49.892;14.490;2023-05-21T07:04:47;97310.94;;;20.62;60.59
78170;BME280;67412;49.892;14.490;2023-05-21T07:07:12;97310.44;;;20.71;60.81
78170;BME280;67412;49.892;14.490;2023-05-21T07:09:38;97314.16;;;20.83;59.38
78170;BME280;67412;49.892;14.490;2023-05-21T07:12:03;97310.09;;;20.78;60.08
78170;BME280;67412;49.892;14.490;2023-05-21T07:14:29;97309.09;;;20.80;59.78
78170;BME280;67412;49.892;14.490;2023-05-21T07:16:54;97308.09;;;20.83;61.69
78170;BME280;67412;49.892;14.490;2023-05-21T07:19:20;97310.63;;;20.84;59.82
78170;BME280;67412;49.892;14.490;2023-05-21T07:21:45;97306.03;;;21.03;60.31
78170;BME280;67412;49.892;14.490;2023-05-21T07:24:11;97301.59;;;21.21;58.94
78170;BME280;67412;49.892;14.490;2023-05-21T07:26:36;97313.81;;;21.20;60.06
78170;BME280;67412;49.892;14.490;2023-05-21T07:29:01;97307.50;;;21.25;60.00
78170;BME280;67412;49.892;14.490;2023-05-21T07:31:27;97313.28;;;21.30;57.11
78170;BME280;67412;49.892;14.490;2023-05-21T07:33:52;97309.22;;;21.40;57.98
78170;BME280;67412;49.892;14.490;2023-05-21T07:36:18;97311.66;;;21.43;57.89
78170;BME280;67412;49.892;14.490;2023-05-21T07:38:43;97304.97;;;21.53;58.29
78170;BME280;67412;49.892;14.490;2023-05-21T07:41:08;97307.53;;;21.68;57.73
78170;BME280;67412;49.892;14.490;2023-05-21T07:43:35;97307.94;;;21.77;57.88
78170;BME280;67412;49.892;14.490;2023-05-21T07:46:01;97304.50;;;21.90;57.98
78170;BME280;67412;49.892;14.490;2023-05-21T07:48:26;97304.31;;;21.93;56.38
78170;BME280;67412;49.892;14.490;2023-05-21T07:50:51;97304.16;;;21.96;55.94
78170;BME280;67412;49.892;14.490;2023-05-21T07:53:17;97298.28;;;22.07;57.30
78170;BME280;67412;49.892;14.490;2023-05-21T07:55:43;97310.53;;;22.21;57.60
78170;BME280;67412;49.892;14.490;2023-05-21T07:58:15;97307.25;;;22.17;57.88
78170;BME280;67412;49.892;14.490;2023-05-21T08:00:46;97304.19;;;22.10;54.12
78170;BME280;67412;49.892;14.490;2023-05-21T08:03:15;97303.97;;;21.99;55.39
78170;BME280;67412;49.892;14.490;2023-05-21T08:05:45;97298.53;;;21.88;56.51
78170;BME280;67412;49.892;14.490;2023-05-21T08:08:19;97311.00;;;22.27;58.07
78170;BME280;67412;49.892;14.490;2023-05-21T08:10:46;97303.06;;;22.00;55.96
78170;BME280;67412;49.892;14.490;2023-05-21T08:13:12;97305.47;;;22.17;56.45
78170;BME280;67412;49.892;14.490;2023-05-21T08:15:37;97302.50;;;22.38;55.03
78170;BME280;67412;49.892;14.490;2023-05-21T08:18:03;97291.28;;;22.36;55.58
78170;BME280;67412;49.892;14.490;2023-05-21T08:20:28;97304.75;;;22.15;56.00
78170;BME280;67412;49.892;14.490;2023-05-21T08:22:55;97306.88;;;22.51;57.28
78170;BME280;67412;49.892;14.490;2023-05-21T08:25:21;97298.50;;;22.87;56.54
78170;BME280;67412;49.892;14.490;2023-05-21T08:27:46;97301.13;;;23.01;54.16
78170;BME280;67412;49.892;14.490;2023-05-21T08:30:11;97297.78;;;23.12;52.63
78170;BME280;67412;49.892;14.490;2023-05-21T08:32:37;97299.47;;;23.13;55.06
78170;BME280;67412;49.892;14.490;2023-05-21T08:35:03;97295.16;;;22.85;52.80
78170;BME280;67412;49.892;14.490;2023-05-21T08:37:28;97293.34;;;23.00;53.53
78170;BME280;67412;49.892;14.490;2023-05-21T08:39:53;97293.78;;;23.06;53.50
78170;BME280;67412;49.892;14.490;2023-05-21T08:42:38;97286.25;;;23.15;54.29
78170;BME280;67412;49.892;14.490;2023-05-21T08:45:04;97289.44;;;23.46;51.05
78170;BME280;67412;49.892;14.490;2023-05-21T08:47:34;97287.28;;;23.66;50.45
78170;BME280;67412;49.892;14.490;2023-05-21T08:50:03;97280.34;;;23.77;49.61
78170;BME280;67412;49.892;14.490;2023-05-21T08:52:30;97287.28;;;23.78;50.55
78170;BME280;67412;49.892;14.490;2023-05-21T08:54:56;97286.44;;;23.90;50.86
78170;BME280;67412;49.892;14.490;2023-05-21T08:57:24;97278.88;;;23.86;49.27
78170;BME280;67412;49.892;14.490;2023-05-21T08:59:49;97279.22;;;23.94;49.04
78170;BME280;67412;49.892;14.490;2023-05-21T09:02:15;97275.44;;;23.73;49.62
78170;BME280;67412;49.892;14.490;2023-05-21T09:04:43;97272.56;;;23.63;48.72
78170;BME280;67412;49.892;14.490;2023-05-21T09:07:13;97281.63;;;23.84;48.71
78170;BME280;67412;49.892;14.490;2023-05-21T09:09:47;97287.72;;;23.97;47.89
78170;BME280;67412;49.892;14.490;2023-05-21T09:12:13;97282.06;;;24.16;49.50
78170;BME280;67412;49.892;14.490;2023-05-21T09:14:39;97278.69;;;24.39;48.01
78170;BME280;67412;49.892;14.490;2023-05-21T09:17:05;97280.28;;;24.17;48.29
78170;BME280;67412;49.892;14.490;2023-05-21T09:19:30;97286.44;;;23.90;48.08
78170;BME280;67412;49.892;14.490;2023-05-21T09:22:02;97284.56;;;24.05;48.45
78170;BME280;67412;49.892;14.490;2023-05-21T09:24:31;97289.50;;;24.22;49.13
78170;BME280;67412;49.892;14.490;2023-05-21T09:26:57;97289.94;;;24.16;50.18
78170;BME280;67412;49.892;14.490;2023-05-21T09:29:25;97295.06;;;24.43;48.88
78170;BME280;67412;49.892;14.490;2023-05-21T09:31:51;97288.59;;;24.72;46.84
78170;BME280;67412;49.892;14.490;2023-05-21T09:34:18;97299.19;;;24.83;46.03
78170;BME280;67412;49.892;14.490;2023-05-21T09:36:44;97291.78;;;25.01;44.86
78170;BME280;67412;49.892;14.490;2023-05-21T09:39:10;97290.75;;;25.04;45.31
78170;BME280;67412;49.892;14.490;2023-05-21T09:41:41;97292.78;;;25.35;46.87
78170;BME280;67412;49.892;14.490;2023-05-21T09:44:06;97291.38;;;25.66;47.57
78170;BME280;67412;49.892;14.490;2023-05-21T09:46:38;97296.88;;;25.39;43.35
78170;BME280;67412;49.892;14.490;2023-05-21T09:49:04;97295.97;;;25.51;43.77
78170;BME280;67412;49.892;14.490;2023-05-21T09:51:29;97284.34;;;25.66;44.57
78170;BME280;67412;49.892;14.490;2023-05-21T09:53:56;97277.59;;;25.97;43.90
78170;BME280;67412;49.892;14.490;2023-05-21T09:56:28;97296.78;;;26.21;42.84
78170;BME280;67412;49.892;14.490;2023-05-21T09:58:58;97289.94;;;25.62;44.28
78170;BME280;67412;49.892;14.490;2023-05-21T10:01:26;97293.34;;;25.27;43.97
78170;BME280;67412;49.892;14.490;2023-05-21T10:03:56;97279.66;;;24.87;44.72
78170;BME280;67412;49.892;14.490;2023-05-21T10:06:26;97281.00;;;24.93;44.19
78170;BME280;67412;49.892;14.490;2023-05-21T10:08:53;97283.28;;;25.21;44.19
78170;BME280;67412;49.892;14.490;2023-05-21T10:11:25;97276.81;;;25.38;45.00
78170;BME280;67412;49.892;14.490;2023-05-21T10:14:04;97279.56;;;25.71;43.34
78170;BME280;67412;49.892;14.490;2023-05-21T10:16:31;97276.81;;;25.84;44.88
78170;BME280;67412;49.892;14.490;2023-05-21T10:18:57;97279.28;;;25.52;43.58
78170;BME280;67412;49.892;14.490;2023-05-21T10:21:23;97275.69;;;25.06;43.68
78170;BME280;67412;49.892;14.490;2023-05-21T10:23:50;97281.38;;;25.23;44.47
78170;BME280;67412;49.892;14.490;2023-05-21T10:26:17;97272.78;;;25.21;43.62
78170;BME280;67412;49.892;14.490;2023-05-21T10:28:43;97265.63;;;24.99;43.86
78170;BME280;67412;49.892;14.490;2023-05-21T10:31:10;97272.59;;;24.51;45.61
78170;BME280;67412;49.892;14.490;2023-05-21T10:33:37;97259.84;;;24.94;45.98
78170;BME280;67412;49.892;14.490;2023-05-21T10:36:02;97266.66;;;24.61;45.82
78170;BME280;67412;49.892;14.490;2023-05-21T10:38:29;97256.63;;;24.42;45.63
78170;BME280;67412;49.892;14.490;2023-05-21T10:40:56;97265.56;;;24.27;45.09
78170;BME280;67412;49.892;14.490;2023-05-21T10:51:24;97250.06;;;26.01;41.94
78170;BME280;67412;49.892;14.490;2023-05-21T10:56:35;97245.28;;;26.73;40.44
78170;BME280;67412;49.892;14.490;2023-05-21T10:59:18;97248.44;;;27.10;41.27
78170;BME280;67412;49.892;14.490;2023-05-21T11:01:50;97250.41;;;26.85;39.59
78170;BME280;67412;49.892;14.490;2023-05-21T11:04:25;97245.59;;;27.22;38.69
78170;BME280;67412;49.892;14.490;2023-05-21T11:06:51;97242.16;;;27.43;38.17
78170;BME280;67412;49.892;14.490;2023-05-21T11:09:16;97248.63;;;27.50;39.60
78170;BME280;67412;49.892;14.490;2023-05-21T11:11:49;97248.25;;;27.75;37.25
78170;BME280;67412;49.892;14.490;2023-05-21T11:16:55;97242.38;;;26.76;38.93
78170;BME280;67412;49.892;14.490;2023-05-21T11:19:25;97244.06;;;27.20;38.93
78170;BME280;67412;49.892;14.490;2023-05-21T11:21:56;97231.56;;;27.01;38.76
78170;BME280;67412;49.892;14.490;2023-05-21T11:24:22;97252.56;;;26.80;37.89
78170;BME280;67412;49.892;14.490;2023-05-21T11:29:13;97243.13;;;26.44;41.50
78170;BME280;67412;49.892;14.490;2023-05-21T11:31:47;97241.31;;;27.21;38.63
78170;BME280;67412;49.892;14.490;2023-05-21T11:34:20;97240.81;;;26.96;38.36
78170;BME280;67412;49.892;14.490;2023-05-21T11:39:41;97238.88;;;26.98;38.59
78170;BME280;67412;49.892;14.490;2023-05-21T11:42:06;97237.16;;;27.08;39.79
78170;BME280;67412;49.892;14.490;2023-05-21T11:44:45;97253.59;;;27.00;38.34
78170;BME280;67412;49.892;14.490;2023-05-21T11:47:17;97243.66;;;26.81;39.00
78170;BME280;67412;49.892;14.490;2023-05-21T11:49:44;97239.50;;;26.90;39.00
78170;BME280;67412;49.892;14.490;2023-05-21T11:52:10;97225.81;;;27.28;38.46
78170;BME280;67412;49.892;14.490;2023-05-21T11:54:41;97227.94;;;27.66;38.57
78170;BME280;67412;49.892;14.490;2023-05-21T11:57:11;97230.34;;;27.78;39.04
78170;BME280;67412;49.892;14.490;2023-05-21T11:59:36;97225.53;;;27.63;37.44
78170;BME280;67412;49.892;14.490;2023-05-21T12:02:02;97231.25;;;27.15;38.61
78170;BME280;67412;49.892;14.490;2023-05-21T12:04:31;97224.63;;;27.53;38.07
78170;BME280;67412;49.892;14.490;2023-05-21T12:07:04;97237.69;;;26.90;38.63
78170;BME280;67412;49.892;14.490;2023-05-21T12:12:05;97228.31;;;26.21;38.66
78170;BME280;67412;49.892;14.490;2023-05-21T12:14:31;97230.00;;;26.99;40.38
78170;BME280;67412;49.892;14.490;2023-05-21T12:16:57;97227.41;;;27.51;37.92
78170;BME280;67412;49.892;14.490;2023-05-21T12:19:22;97223.19;;;27.49;38.30
78170;BME280;67412;49.892;14.490;2023-05-21T12:21:48;97218.91;;;27.68;37.15
78170;BME280;67412;49.892;14.490;2023-05-21T12:24:14;97226.34;;;27.43;37.90
78170;BME280;67412;49.892;14.490;2023-05-21T12:26:40;97216.13;;;27.49;38.93
78170;BME280;67412;49.892;14.490;2023-05-21T12:29:06;97226.19;;;26.80;37.22
78170;BME280;67412;49.892;14.490;2023-05-21T12:31:31;97226.09;;;26.71;38.40
78170;BME280;67412;49.892;14.490;2023-05-21T12:33:57;97218.31;;;26.69;39.74
78170;BME280;67412;49.892;14.490;2023-05-21T12:36:27;97219.09;;;26.38;38.06
78170;BME280;67412;49.892;14.490;2023-05-21T12:38:53;97223.34;;;25.83;38.87
78170;BME280;67412;49.892;14.490;2023-05-21T12:41:21;97214.34;;;25.64;38.49
78170;BME280;67412;49.892;14.490;2023-05-21T12:43:46;97209.59;;;26.02;39.57
78170;BME280;67412;49.892;14.490;2023-05-21T12:46:12;97208.13;;;25.30;38.38
78170;BME280;67412;49.892;14.490;2023-05-21T12:48:39;97201.13;;;25.07;38.54
78170;BME280;67412;49.892;14.490;2023-05-21T12:51:07;97218.69;;;25.41;38.30
78170;BME280;67412;49.892;14.490;2023-05-21T12:53:36;97208.72;;;26.68;36.45
78170;BME280;67412;49.892;14.490;2023-05-21T12:56:12;97205.69;;;27.89;35.85
78170;BME280;67412;49.892;14.490;2023-05-21T12:58:39;97205.63;;;28.30;34.95
78170;BME280;67412;49.892;14.490;2023-05-21T13:01:08;97204.75;;;28.00;34.85
78170;BME280;67412;49.892;14.490;2023-05-21T13:03:34;97197.47;;;28.53;33.91
78170;BME280;67412;49.892;14.490;2023-05-21T13:06:01;97194.50;;;28.86;34.10
78170;BME280;67412;49.892;14.490;2023-05-21T13:08:26;97191.84;;;28.86;34.46
78170;BME280;67412;49.892;14.490;2023-05-21T13:10:52;97195.16;;;28.19;36.28
78170;BME280;67412;49.892;14.490;2023-05-21T13:13:17;97191.19;;;28.54;32.94